sensor_id;sensor_type;location;lat;lon;timestamp;temperature;humidity
21676;DHT22;10999;51.332;9.458;2022-07-03T00:01:53;18.30;55.70
21676;DHT22;10999;51.332;9.458;2022-07-03T00:04:20;18.30;55.30
21676;DHT22;10999;51.332;9.458;2022-07-03T00:06:47;18.20;55.70
21676;DHT22;10999;51.332;9.458;2022-07-03T00:09:13;18.20;56.00
21676;DHT22;10999;51.332;9.458;2022-07-03T00:11:40;18.10;56.60
21676;DHT22;10999;51.332;9.458;2022-07-03T00:14:07;18.00;56.60
21676;DHT22;10999;51.332;9.458;2022-07-03T00:16:33;18.00;57.30
21676;DHT22;10999;51.332;9.458;2022-07-03T00:19:00;17.90;58.20
21676;DHT22;10999;51.332;9.458;2022-07-03T00:21:28;17.80;59.10
21676;DHT22;10999;51.332;9.458;2022-07-03T00:23:56;17.80;59.00
21676;DHT22;10999;51.332;9.458;2022-07-03T00:26:26;17.70;59.10
21676;DHT22;10999;51.332;9.458;2022-07-03T00:28:55;17.60;59.30
21676;DHT22;10999;51.332;9.458;2022-07-03T00:31:22;17.50;59.20
21676;DHT22;10999;51.332;9.458;2022-07-03T00:33:50;17.50;59.70
21676;DHT22;10999;51.332;9.458;2022-07-03T00:36:17;17.40;60.20
21676;DHT22;10999;51.332;9.458;2022-07-03T00:38:44;17.30;61.10
21676;DHT22;10999;51.332;9.458;2022-07-03T00:41:23;17.30;61.90
21676;DHT22;10999;51.332;9.458;2022-07-03T00:43:50;17.20;61.90
21676;DHT22;10999;51.332;9.458;2022-07-03T00:46:16;17.20;61.90
21676;DHT22;10999;51.332;9.458;2022-07-03T00:48:43;17.20;61.90
21676;DHT22;10999;51.332;9.458;2022-07-03T00:51:14;17.10;62.20
21676;DHT22;10999;51.332;9.458;2022-07-03T00:53:41;17.10;62.50
21676;DHT22;10999;51.332;9.458;2022-07-03T00:56:08;17.10;63.10
21676;DHT22;10999;51.332;9.458;2022-07-03T00:58:37;17.00;62.70
21676;DHT22;10999;51.332;9.458;2022-07-03T01:01:04;17.00;62.80
21676;DHT22;10999;51.332;9.458;2022-07-03T01:03:32;16.90;63.70
21676;DHT22;10999;51.332;9.458;2022-07-03T01:06:03;16.90;63.90
21676;DHT22;10999;51.332;9.458;2022-07-03T01:08:42;16.80;64.00
21676;DHT22;10999;51.332;9.458;2022-07-03T01:12:14;16.80;65.00
21676;DHT22;10999;51.332;9.458;2022-07-03T01:19:34;16.60;65.80
21676;DHT22;10999;51.332;9.458;2022-07-03T01:22:08;16.50;65.60
21676;DHT22;10999;51.332;9.458;2022-07-03T01:27:40;16.40;65.90
21676;DHT22;10999;51.332;9.458;2022-07-03T01:30:09;16.30;66.40
21676;DHT22;10999;51.332;9.458;2022-07-03T01:32:38;16.30;66.20
21676;DHT22;10999;51.332;9.458;2022-07-03T01:35:05;16.30;67.20
21676;DHT22;10999;51.332;9.458;2022-07-03T01:37:34;16.20;67.10
21676;DHT22;10999;51.332;9.458;2022-07-03T01:40:04;16.20;67.60
21676;DHT22;10999;51.332;9.458;2022-07-03T01:42:35;16.10;67.30
21676;DHT22;10999;51.332;9.458;2022-07-03T01:45:04;16.10;67.50
21676;DHT22;10999;51.332;9.458;2022-07-03T01:47:31;16.00;67.20
21676;DHT22;10999;51.332;9.458;2022-07-03T01:49:58;16.00;67.50
21676;DHT22;10999;51.332;9.458;2022-07-03T01:52:26;15.90;67.80
21676;DHT22;10999;51.332;9.458;2022-07-03T01:55:13;15.90;68.20
21676;DHT22;10999;51.332;9.458;2022-07-03T01:57:50;15.90;68.20
21676;DHT22;10999;51.332;9.458;2022-07-03T02:00:18;15.80;68.30
21676;DHT22;10999;51.332;9.458;2022-07-03T02:02:58;15.70;68.40
21676;DHT22;10999;51.332;9.458;2022-07-03T02:10:28;15.60;69.00
21676;DHT22;10999;51.332;9.458;2022-07-03T02:13:19;15.60;69.10
21676;DHT22;10999;51.332;9.458;2022-07-03T02:15:43;15.60;69.00
21676;DHT22;10999;51.332;9.458;2022-07-03T02:18:11;15.50;70.00
21676;DHT22;10999;51.332;9.458;2022-07-03T02:20:40;15.50;70.00
21676;DHT22;10999;51.332;9.458;2022-07-03T02:23:09;15.50;70.50
21676;DHT22;10999;51.332;9.458;2022-07-03T02:25:39;15.50;70.50
21676;DHT22;10999;51.332;9.458;2022-07-03T02:28:10;15.40;70.20
21676;DHT22;10999;51.332;9.458;2022-07-03T02:30:40;15.40;70.70
21676;DHT22;10999;51.332;9.458;2022-07-03T02:33:08;15.30;71.10
21676;DHT22;10999;51.332;9.458;2022-07-03T02:35:37;15.30;70.90
21676;DHT22;10999;51.332;9.458;2022-07-03T02:38:06;15.30;71.20
21676;DHT22;10999;51.332;9.458;2022-07-03T02:40:37;15.20;71.50
21676;DHT22;10999;51.332;9.458;2022-07-03T02:45:48;15.10;71.60
21676;DHT22;10999;51.332;9.458;2022-07-03T02:48:19;15.10;71.70
21676;DHT22;10999;51.332;9.458;2022-07-03T02:50:47;15.00;72.00
21676;DHT22;10999;51.332;9.458;2022-07-03T02:53:22;15.10;72.50
21676;DHT22;10999;51.332;9.458;2022-07-03T02:55:50;15.00;71.80
21676;DHT22;10999;51.332;9.458;2022-07-03T03:01:11;14.90;72.50
21676;DHT22;10999;51.332;9.458;2022-07-03T03:03:41;14.80;72.70
21676;DHT22;10999;51.332;9.458;2022-07-03T03:06:14;14.90;73.00
21676;DHT22;10999;51.332;9.458;2022-07-03T03:08:52;14.80;73.50
21676;DHT22;10999;51.332;9.458;2022-07-03T03:11:24;14.80;73.80
21676;DHT22;10999;51.332;9.458;2022-07-03T03:13:55;14.70;73.70
21676;DHT22;10999;51.332;9.458;2022-07-03T03:16:23;14.80;73.60
21676;DHT22;10999;51.332;9.458;2022-07-03T03:18:50;14.70;73.60
21676;DHT22;10999;51.332;9.458;2022-07-03T03:21:17;14.70;73.70
21676;DHT22;10999;51.332;9.458;2022-07-03T03:26:12;14.80;74.10
21676;DHT22;10999;51.332;9.458;2022-07-03T03:28:39;14.70;74.00
21676;DHT22;10999;51.332;9.458;2022-07-03T03:31:07;14.70;73.80
21676;DHT22;10999;51.332;9.458;2022-07-03T03:33:42;14.60;74.30
21676;DHT22;10999;51.332;9.458;2022-07-03T03:36:09;14.60;74.60
21676;DHT22;10999;51.332;9.458;2022-07-03T03:38:39;14.60;74.80
21676;DHT22;10999;51.332;9.458;2022-07-03T03:41:07;14.60;74.80
21676;DHT22;10999;51.332;9.458;2022-07-03T03:43:40;14.60;74.80
21676;DHT22;10999;51.332;9.458;2022-07-03T03:46:07;14.70;75.60
21676;DHT22;10999;51.332;9.458;2022-07-03T03:48:33;14.70;75.90
21676;DHT22;10999;51.332;9.458;2022-07-03T03:51:01;14.70;75.80
21676;DHT22;10999;51.332;9.458;2022-07-03T03:53:29;14.60;76.00
21676;DHT22;10999;51.332;9.458;2022-07-03T03:56:00;14.60;76.20
21676;DHT22;10999;51.332;9.458;2022-07-03T03:58:28;14.70;76.20
21676;DHT22;10999;51.332;9.458;2022-07-03T04:00:55;14.60;76.20
21676;DHT22;10999;51.332;9.458;2022-07-03T04:03:23;14.60;76.00
21676;DHT22;10999;51.332;9.458;2022-07-03T04:05:49;14.50;76.60
21676;DHT22;10999;51.332;9.458;2022-07-03T04:08:16;14.60;76.80
21676;DHT22;10999;51.332;9.458;2022-07-03T04:10:43;14.60;77.00
21676;DHT22;10999;51.332;9.458;2022-07-03T04:13:09;14.60;77.00
21676;DHT22;10999;51.332;9.458;2022-07-03T04:15:36;14.60;76.90
21676;DHT22;10999;51.332;9.458;2022-07-03T04:18:03;14.70;76.90
21676;DHT22;10999;51.332;9.458;2022-07-03T04:20:29;14.70;76.40
21676;DHT22;10999;51.332;9.458;2022-07-03T04:22:57;14.70;76.20
21676;DHT22;10999;51.332;9.458;2022-07-03T04:25:24;14.80;76.30
21676;DHT22;10999;51.332;9.458;2022-07-03T04:27:51;14.80;75.40
21676;DHT22;10999;51.332;9.458;2022-07-03T04:30:37;14.90;74.50
21676;DHT22;10999;51.332;9.458;2022-07-03T04:33:04;15.00;74.10
21676;DHT22;10999;51.332;9.458;2022-07-03T04:35:31;15.00;74.10
21676;DHT22;10999;51.332;9.458;2022-07-03T04:37:57;15.20;74.10
21676;DHT22;10999;51.332;9.458;2022-07-03T04:40:24;15.20;74.10
21676;DHT22;10999;51.332;9.458;2022-07-03T04:42:51;15.20;73.60
21676;DHT22;10999;51.332;9.458;2022-07-03T04:45:18;15.30;72.90
21676;DHT22;10999;51.332;9.458;2022-07-03T04:47:44;15.40;72.30
21676;DHT22;10999;51.332;9.458;2022-07-03T04:50:11;15.40;71.70
21676;DHT22;10999;51.332;9.458;2022-07-03T04:52:37;15.40;71.30
21676;DHT22;10999;51.332;9.458;2022-07-03T04:55:04;15.40;70.30
21676;DHT22;10999;51.332;9.458;2022-07-03T04:57:31;15.50;69.60
21676;DHT22;10999;51.332;9.458;2022-07-03T04:59:58;15.60;67.70
21676;DHT22;10999;51.332;9.458;2022-07-03T05:02:24;15.60;67.90
21676;DHT22;10999;51.332;9.458;2022-07-03T05:04:51;15.80;67.50
21676;DHT22;10999;51.332;9.458;2022-07-03T05:07:18;15.80;66.60
21676;DHT22;10999;51.332;9.458;2022-07-03T05:09:44;15.90;66.70
21676;DHT22;10999;51.332;9.458;2022-07-03T05:12:12;16.10;65.50
21676;DHT22;10999;51.332;9.458;2022-07-03T05:14:38;16.10;65.50
21676;DHT22;10999;51.332;9.458;2022-07-03T05:17:05;16.30;65.00
21676;DHT22;10999;51.332;9.458;2022-07-03T05:19:32;16.40;64.90
21676;DHT22;10999;51.332;9.458;2022-07-03T05:21:58;16.50;61.90
21676;DHT22;10999;51.332;9.458;2022-07-03T05:24:25;16.70;61.60
21676;DHT22;10999;51.332;9.458;2022-07-03T05:26:52;16.80;60.70
21676;DHT22;10999;51.332;9.458;2022-07-03T05:29:18;17.00;59.30
21676;DHT22;10999;51.332;9.458;2022-07-03T05:31:45;17.20;58.90
21676;DHT22;10999;51.332;9.458;2022-07-03T05:34:12;17.30;58.90
21676;DHT22;10999;51.332;9.458;2022-07-03T05:36:39;17.50;58.50
21676;DHT22;10999;51.332;9.458;2022-07-03T05:39:05;17.70;55.90
21676;DHT22;10999;51.332;9.458;2022-07-03T05:41:51;17.80;55.00
21676;DHT22;10999;51.332;9.458;2022-07-03T05:44:17;18.00;52.70
21676;DHT22;10999;51.332;9.458;2022-07-03T05:46:44;18.20;52.20
21676;DHT22;10999;51.332;9.458;2022-07-03T05:49:11;18.40;51.50
21676;DHT22;10999;51.332;9.458;2022-07-03T05:51:37;18.50;50.60
21676;DHT22;10999;51.332;9.458;2022-07-03T05:54:04;18.70;50.10
21676;DHT22;10999;51.332;9.458;2022-07-03T05:56:31;18.80;48.40
21676;DHT22;10999;51.332;9.458;2022-07-03T05:58:57;19.00;47.80
21676;DHT22;10999;51.332;9.458;2022-07-03T06:01:24;19.20;44.90
21676;DHT22;10999;51.332;9.458;2022-07-03T06:03:51;19.30;45.80
21676;DHT22;10999;51.332;9.458;2022-07-03T06:06:18;19.40;41.40
21676;DHT22;10999;51.332;9.458;2022-07-03T06:08:44;19.50;41.50
21676;DHT22;10999;51.332;9.458;2022-07-03T06:11:11;19.60;41.00
21676;DHT22;10999;51.332;9.458;2022-07-03T06:13:38;19.70;42.40
21676;DHT22;10999;51.332;9.458;2022-07-03T06:16:05;19.80;41.40
21676;DHT22;10999;51.332;9.458;2022-07-03T06:18:32;20.00;40.20
21676;DHT22;10999;51.332;9.458;2022-07-03T06:20:58;20.10;39.30
21676;DHT22;10999;51.332;9.458;2022-07-03T06:23:25;20.20;40.00
21676;DHT22;10999;51.332;9.458;2022-07-03T06:26:12;20.30;38.60
21676;DHT22;10999;51.332;9.458;2022-07-03T06:28:39;20.40;36.90
21676;DHT22;10999;51.332;9.458;2022-07-03T06:31:06;20.60;38.10
21676;DHT22;10999;51.332;9.458;2022-07-03T06:33:32;20.80;36.20
21676;DHT22;10999;51.332;9.458;2022-07-03T06:35:59;21.00;36.30
21676;DHT22;10999;51.332;9.458;2022-07-03T06:38:26;21.10;35.40
21676;DHT22;10999;51.332;9.458;2022-07-03T06:40:52;21.40;36.00
21676;DHT22;10999;51.332;9.458;2022-07-03T06:43:19;21.60;33.40
21676;DHT22;10999;51.332;9.458;2022-07-03T06:45:46;21.80;30.90
21676;DHT22;10999;51.332;9.458;2022-07-03T06:48:13;21.80;31.40
21676;DHT22;10999;51.332;9.458;2022-07-03T06:50:39;22.00;29.70
21676;DHT22;10999;51.332;9.458;2022-07-03T06:53:06;22.20;30.70
21676;DHT22;10999;51.332;9.458;2022-07-03T06:55:33;22.40;28.90
21676;DHT22;10999;51.332;9.458;2022-07-03T06:58:00;22.40;27.60
21676;DHT22;10999;51.332;9.458;2022-07-03T07:00:26;22.50;26.90
21676;DHT22;10999;51.332;9.458;2022-07-03T07:02:53;22.60;27.30
21676;DHT22;10999;51.332;9.458;2022-07-03T07:05:25;22.60;25.90
21676;DHT22;10999;51.332;9.458;2022-07-03T07:07:51;22.40;27.50
21676;DHT22;10999;51.332;9.458;2022-07-03T07:10:18;22.30;27.50
21676;DHT22;10999;51.332;9.458;2022-07-03T07:12:45;22.50;28.50
21676;DHT22;10999;51.332;9.458;2022-07-03T07:15:12;22.80;27.60
21676;DHT22;10999;51.332;9.458;2022-07-03T07:17:38;23.00;25.40
21676;DHT22;10999;51.332;9.458;2022-07-03T07:20:05;23.20;26.90
21676;DHT22;10999;51.332;9.458;2022-07-03T07:22:32;23.30;24.70
21676;DHT22;10999;51.332;9.458;2022-07-03T07:24:59;23.60;25.30
21676;DHT22;10999;51.332;9.458;2022-07-03T07:27:25;24.00;24.30
21676;DHT22;10999;51.332;9.458;2022-07-03T07:29:52;24.20;23.50
21676;DHT22;10999;51.332;9.458;2022-07-03T07:32:19;24.50;23.20
21676;DHT22;10999;51.332;9.458;2022-07-03T07:34:45;24.50;22.70
21676;DHT22;10999;51.332;9.458;2022-07-03T07:37:12;24.90;22.70
21676;DHT22;10999;51.332;9.458;2022-07-03T07:39:39;25.00;20.40
21676;DHT22;10999;51.332;9.458;2022-07-03T07:42:05;25.20;22.80
21676;DHT22;10999;51.332;9.458;2022-07-03T07:44:32;25.30;20.60
21676;DHT22;10999;51.332;9.458;2022-07-03T07:46:59;25.40;21.30
21676;DHT22;10999;51.332;9.458;2022-07-03T07:49:25;25.70;21.00
21676;DHT22;10999;51.332;9.458;2022-07-03T07:51:52;25.90;20.00
21676;DHT22;10999;51.332;9.458;2022-07-03T07:54:19;26.00;19.70
21676;DHT22;10999;51.332;9.458;2022-07-03T07:56:45;25.70;19.70
21676;DHT22;10999;51.332;9.458;2022-07-03T07:59:12;25.90;21.40
21676;DHT22;10999;51.332;9.458;2022-07-03T08:01:39;26.20;19.40
21676;DHT22;10999;51.332;9.458;2022-07-03T08:04:24;26.40;20.90
21676;DHT22;10999;51.332;9.458;2022-07-03T08:07:10;26.80;19.70
21676;DHT22;10999;51.332;9.458;2022-07-03T08:09:36;27.10;18.10
21676;DHT22;10999;51.332;9.458;2022-07-03T08:12:03;27.30;18.00
21676;DHT22;10999;51.332;9.458;2022-07-03T08:14:30;27.20;17.40
21676;DHT22;10999;51.332;9.458;2022-07-03T08:16:57;26.90;16.90
21676;DHT22;10999;51.332;9.458;2022-07-03T08:19:23;27.00;18.00
21676;DHT22;10999;51.332;9.458;2022-07-03T08:21:50;27.40;18.70
21676;DHT22;10999;51.332;9.458;2022-07-03T08:24:17;27.80;16.80
21676;DHT22;10999;51.332;9.458;2022-07-03T08:26:44;28.00;17.10
21676;DHT22;10999;51.332;9.458;2022-07-03T08:29:10;28.10;15.10
21676;DHT22;10999;51.332;9.458;2022-07-03T08:31:38;27.90;15.50
21676;DHT22;10999;51.332;9.458;2022-07-03T08:34:04;27.90;15.10
21676;DHT22;10999;51.332;9.458;2022-07-03T08:36:31;28.10;15.40
21676;DHT22;10999;51.332;9.458;2022-07-03T08:39:02;28.10;15.00
21676;DHT22;10999;51.332;9.458;2022-07-03T08:41:30;28.10;15.40
21676;DHT22;10999;51.332;9.458;2022-07-03T08:43:59;28.10;14.80
21676;DHT22;10999;51.332;9.458;2022-07-03T08:46:26;28.70;16.50
21676;DHT22;10999;51.332;9.458;2022-07-03T08:48:54;29.00;13.90
21676;DHT22;10999;51.332;9.458;2022-07-03T08:51:20;29.30;13.80
21676;DHT22;10999;51.332;9.458;2022-07-03T08:53:47;29.50;13.70
21676;DHT22;10999;51.332;9.458;2022-07-03T08:56:14;29.50;13.10
21676;DHT22;10999;51.332;9.458;2022-07-03T08:58:41;29.50;14.10
21676;DHT22;10999;51.332;9.458;2022-07-03T09:01:09;29.70;13.10
21676;DHT22;10999;51.332;9.458;2022-07-03T09:03:36;30.20;13.20
21676;DHT22;10999;51.332;9.458;2022-07-03T09:06:04;30.30;11.30
21676;DHT22;10999;51.332;9.458;2022-07-03T09:08:31;30.60;11.70
21676;DHT22;10999;51.332;9.458;2022-07-03T09:10:58;30.40;11.30
21676;DHT22;10999;51.332;9.458;2022-07-03T09:13:25;30.10;11.00
21676;DHT22;10999;51.332;9.458;2022-07-03T09:15:51;30.00;11.70
21676;DHT22;10999;51.332;9.458;2022-07-03T09:18:18;30.00;13.10
21676;DHT22;10999;51.332;9.458;2022-07-03T09:21:02;30.10;11.70
21676;DHT22;10999;51.332;9.458;2022-07-03T09:23:34;29.90;12.30
21676;DHT22;10999;51.332;9.458;2022-07-03T09:26:01;29.60;10.90
21676;DHT22;10999;51.332;9.458;2022-07-03T09:31:11;29.00;11.80
21676;DHT22;10999;51.332;9.458;2022-07-03T09:36:22;29.30;12.50
21676;DHT22;10999;51.332;9.458;2022-07-03T09:38:49;29.80;11.70
21676;DHT22;10999;51.332;9.458;2022-07-03T09:41:16;30.40;11.60
21676;DHT22;10999;51.332;9.458;2022-07-03T09:43:43;30.60;10.20
21676;DHT22;10999;51.332;9.458;2022-07-03T09:46:10;30.70;9.80
21676;DHT22;10999;51.332;9.458;2022-07-03T09:48:38;30.90;9.80
21676;DHT22;10999;51.332;9.458;2022-07-03T09:51:12;31.00;10.60
21676;DHT22;10999;51.332;9.458;2022-07-03T09:53:59;30.60;9.80
21676;DHT22;10999;51.332;9.458;2022-07-03T09:56:26;30.10;10.20
21676;DHT22;10999;51.332;9.458;2022-07-03T09:59:06;29.60;10.40
21676;DHT22;10999;51.332;9.458;2022-07-03T10:01:34;29.50;10.70
21676;DHT22;10999;51.332;9.458;2022-07-03T10:06:58;29.10;11.20
21676;DHT22;10999;51.332;9.458;2022-07-03T10:09:27;28.90;13.10
21676;DHT22;10999;51.332;9.458;2022-07-03T10:11:55;28.90;11.70
21676;DHT22;10999;51.332;9.458;2022-07-03T10:14:26;28.90;11.40
21676;DHT22;10999;51.332;9.458;2022-07-03T10:16:54;29.00;10.80
21676;DHT22;10999;51.332;9.458;2022-07-03T10:19:25;29.30;11.30
21676;DHT22;10999;51.332;9.458;2022-07-03T10:24:20;29.40;10.70
21676;DHT22;10999;51.332;9.458;2022-07-03T10:26:47;29.70;13.40
21676;DHT22;10999;51.332;9.458;2022-07-03T10:29:15;30.00;10.90
21676;DHT22;10999;51.332;9.458;2022-07-03T10:31:45;30.10;11.30
21676;DHT22;10999;51.332;9.458;2022-07-03T10:34:23;29.70;9.80
21676;DHT22;10999;51.332;9.458;2022-07-03T10:36:52;29.90;10.00
21676;DHT22;10999;51.332;9.458;2022-07-03T10:39:30;30.10;10.70
21676;DHT22;10999;51.332;9.458;2022-07-03T10:41:59;30.00;10.20
21676;DHT22;10999;51.332;9.458;2022-07-03T10:47:39;30.40;10.20
21676;DHT22;10999;51.332;9.458;2022-07-03T10:50:10;30.50;9.20
21676;DHT22;10999;51.332;9.458;2022-07-03T10:52:38;30.60;9.90
21676;DHT22;10999;51.332;9.458;2022-07-03T10:55:05;30.40;8.90
21676;DHT22;10999;51.332;9.458;2022-07-03T10:57:33;30.10;9.80
21676;DHT22;10999;51.332;9.458;2022-07-03T11:00:01;29.80;8.80
21676;DHT22;10999;51.332;9.458;2022-07-03T11:25:54;29.60;9.60
21676;DHT22;10999;51.332;9.458;2022-07-03T11:33:47;28.90;10.50
21676;DHT22;10999;51.332;9.458;2022-07-03T11:38:41;28.60;9.70
21676;DHT22;10999;51.332;9.458;2022-07-03T11:41:10;28.60;11.80
21676;DHT22;10999;51.332;9.458;2022-07-03T11:43:37;28.50;10.60
21676;DHT22;10999;51.332;9.458;2022-07-03T11:46:04;28.50;11.90
21676;DHT22;10999;51.332;9.458;2022-07-03T11:48:31;28.40;11.50
21676;DHT22;10999;51.332;9.458;2022-07-03T11:50:59;28.30;12.90
21676;DHT22;10999;51.332;9.458;2022-07-03T11:53:28;28.30;11.30
21676;DHT22;10999;51.332;9.458;2022-07-03T11:58:47;28.10;11.60
21676;DHT22;10999;51.332;9.458;2022-07-03T12:03:54;27.90;13.00
21676;DHT22;10999;51.332;9.458;2022-07-03T12:07:01;27.80;14.70
21676;DHT22;10999;51.332;9.458;2022-07-03T12:11:51;27.70;15.80
21676;DHT22;10999;51.332;9.458;2022-07-03T12:14:32;27.90;15.90
21676;DHT22;10999;51.332;9.458;2022-07-03T12:16:59;28.00;14.80
21676;DHT22;10999;51.332;9.458;2022-07-03T12:19:26;28.40;13.20
21676;DHT22;10999;51.332;9.458;2022-07-03T12:21:52;28.60;12.10
21676;DHT22;10999;51.332;9.458;2022-07-03T12:24:19;28.80;13.70
21676;DHT22;10999;51.332;9.458;2022-07-03T12:26:47;28.90;10.20
21676;DHT22;10999;51.332;9.458;2022-07-03T12:29:14;28.90;9.30
21676;DHT22;10999;51.332;9.458;2022-07-03T12:31:42;28.80;9.80
21676;DHT22;10999;51.332;9.458;2022-07-03T12:34:10;29.00;10.10
21676;DHT22;10999;51.332;9.458;2022-07-03T12:36:37;29.00;8.60
21676;DHT22;10999;51.332;9.458;2022-07-03T12:39:03;28.90;9.20
21676;DHT22;10999;51.332;9.458;2022-07-03T12:41:30;29.20;9.70
21676;DHT22;10999;51.332;9.458;2022-07-03T12:43:58;29.50;9.10
21676;DHT22;10999;51.332;9.458;2022-07-03T12:46:26;29.30;8.30
21676;DHT22;10999;51.332;9.458;2022-07-03T12:48:53;29.40;8.90
21676;DHT22;10999;51.332;9.458;2022-07-03T12:54:13;29.70;11.30
21676;DHT22;10999;51.332;9.458;2022-07-03T12:56:41;29.70;9.00
21676;DHT22;10999;51.332;9.458;2022-07-03T12:59:27;30.00;8.00
21676;DHT22;10999;51.332;9.458;2022-07-03T13:04:34;29.40;8.10
21676;DHT22;10999;51.332;9.458;2022-07-03T13:07:08;29.30;8.10
21676;DHT22;10999;51.332;9.458;2022-07-03T13:09:35;29.10;8.40
21676;DHT22;10999;51.332;9.458;2022-07-03T13:12:05;29.00;9.50
21676;DHT22;10999;51.332;9.458;2022-07-03T13:14:32;28.80;9.20
21676;DHT22;10999;51.332;9.458;2022-07-03T13:16:59;28.70;9.30
21676;DHT22;10999;51.332;9.458;2022-07-03T13:19:27;28.90;10.30
21676;DHT22;10999;51.332;9.458;2022-07-03T13:21:55;29.10;9.50
21676;DHT22;10999;51.332;9.458;2022-07-03T13:24:22;29.40;9.20
21676;DHT22;10999;51.332;9.458;2022-07-03T13:26:50;29.70;8.60
21676;DHT22;10999;51.332;9.458;2022-07-03T13:29:19;30.10;9.70
21676;DHT22;10999;51.332;9.458;2022-07-03T13:31:46;30.20;8.10
21676;DHT22;10999;51.332;9.458;2022-07-03T13:34:13;30.20;8.30
21676;DHT22;10999;51.332;9.458;2022-07-03T13:36:40;30.20;8.00
21676;DHT22;10999;51.332;9.458;2022-07-03T13:39:08;30.00;8.60
21676;DHT22;10999;51.332;9.458;2022-07-03T13:41:36;29.90;8.10
21676;DHT22;10999;51.332;9.458;2022-07-03T13:44:03;30.10;8.00
21676;DHT22;10999;51.332;9.458;2022-07-03T13:46:30;30.30;9.80
21676;DHT22;10999;51.332;9.458;2022-07-03T13:48:57;30.40;8.40
21676;DHT22;10999;51.332;9.458;2022-07-03T13:51:24;30.60;8.00
21676;DHT22;10999;51.332;9.458;2022-07-03T13:53:51;30.50;7.10
21676;DHT22;10999;51.332;9.458;2022-07-03T13:56:18;30.50;6.60
21676;DHT22;10999;51.332;9.458;2022-07-03T13:58:45;30.50;6.50
21676;DHT22;10999;51.332;9.458;2022-07-03T14:01:26;30.50;5.80
21676;DHT22;10999;51.332;9.458;2022-07-03T14:03:54;30.40;4.60
21676;DHT22;10999;51.332;9.458;2022-07-03T14:06:21;30.10;5.50
21676;DHT22;10999;51.332;9.458;2022-07-03T14:08:49;29.90;5.80
21676;DHT22;10999;51.332;9.458;2022-07-03T14:11:16;30.00;6.00
21676;DHT22;10999;51.332;9.458;2022-07-03T14:13:43;30.20;6.20
21676;DHT22;10999;51.332;9.458;2022-07-03T14:16:10;30.40;4.40
21676;DHT22;10999;51.332;9.458;2022-07-03T14:18:37;30.30;2.30
21676;DHT22;10999;51.332;9.458;2022-07-03T14:21:04;30.10;3.70
21676;DHT22;10999;51.332;9.458;2022-07-03T14:23:32;29.80;3.40
21676;DHT22;10999;51.332;9.458;2022-07-03T14:25:59;29.50;4.40
21676;DHT22;10999;51.332;9.458;2022-07-03T14:28:25;29.70;5.20
21676;DHT22;10999;51.332;9.458;2022-07-03T14:31:16;29.90;4.70
21676;DHT22;10999;51.332;9.458;2022-07-03T14:33:52;30.30;3.40
21676;DHT22;10999;51.332;9.458;2022-07-03T14:36:20;30.40;2.00
21676;DHT22;10999;51.332;9.458;2022-07-03T14:39:07;30.10;2.40
21676;DHT22;10999;51.332;9.458;2022-07-03T14:41:34;29.70;3.00
21676;DHT22;10999;51.332;9.458;2022-07-03T14:44:01;29.50;3.50
21676;DHT22;10999;51.332;9.458;2022-07-03T14:46:27;29.30;4.00
21676;DHT22;10999;51.332;9.458;2022-07-03T14:48:54;28.90;3.50
21676;DHT22;10999;51.332;9.458;2022-07-03T14:51:21;29.00;5.00
21676;DHT22;10999;51.332;9.458;2022-07-03T14:53:47;29.10;5.70
21676;DHT22;10999;51.332;9.458;2022-07-03T14:56:16;29.10;5.10
21676;DHT22;10999;51.332;9.458;2022-07-03T14:58:43;29.30;6.20
21676;DHT22;10999;51.332;9.458;2022-07-03T15:01:10;29.40;6.00
21676;DHT22;10999;51.332;9.458;2022-07-03T15:03:38;29.50;6.40
21676;DHT22;10999;51.332;9.458;2022-07-03T15:06:11;29.30;7.10
21676;DHT22;10999;51.332;9.458;2022-07-03T15:08:43;29.30;7.10
21676;DHT22;10999;51.332;9.458;2022-07-03T15:11:13;29.40;7.50
21676;DHT22;10999;51.332;9.458;2022-07-03T15:14:01;29.50;6.40
21676;DHT22;10999;51.332;9.458;2022-07-03T15:16:29;29.30;6.10
21676;DHT22;10999;51.332;9.458;2022-07-03T15:18:58;29.00;7.20
21676;DHT22;10999;51.332;9.458;2022-07-03T15:21:26;28.80;7.70
21676;DHT22;10999;51.332;9.458;2022-07-03T15:23:55;28.60;8.40
21676;DHT22;10999;51.332;9.458;2022-07-03T15:26:24;28.40;9.80
21676;DHT22;10999;51.332;9.458;2022-07-03T15:28:51;28.40;10.20
21676;DHT22;10999;51.332;9.458;2022-07-03T15:31:19;28.30;9.00
21676;DHT22;10999;51.332;9.458;2022-07-03T15:33:46;28.20;7.50
21676;DHT22;10999;51.332;9.458;2022-07-03T15:36:13;28.30;10.10
21676;DHT22;10999;51.332;9.458;2022-07-03T15:38:44;28.30;10.00
21676;DHT22;10999;51.332;9.458;2022-07-03T15:41:12;28.20;11.20
21676;DHT22;10999;51.332;9.458;2022-07-03T15:53:38;28.80;10.90
21676;DHT22;10999;51.332;9.458;2022-07-03T15:56:06;28.80;9.60
21676;DHT22;10999;51.332;9.458;2022-07-03T15:58:34;28.60;10.30
21676;DHT22;10999;51.332;9.458;2022-07-03T16:01:02;28.50;11.60
21676;DHT22;10999;51.332;9.458;2022-07-03T16:03:53;28.60;10.60
21676;DHT22;10999;51.332;9.458;2022-07-03T16:06:20;28.70;11.00
21676;DHT22;10999;51.332;9.458;2022-07-03T16:08:47;28.70;11.40
21676;DHT22;10999;51.332;9.458;2022-07-03T16:11:16;28.70;10.40
21676;DHT22;10999;51.332;9.458;2022-07-03T16:13:42;28.70;10.70
21676;DHT22;10999;51.332;9.458;2022-07-03T16:16:09;28.80;10.00
21676;DHT22;10999;51.332;9.458;2022-07-03T16:18:36;28.80;11.10
21676;DHT22;10999;51.332;9.458;2022-07-03T16:21:06;28.80;10.00
21676;DHT22;10999;51.332;9.458;2022-07-03T16:23:33;28.70;10.50
21676;DHT22;10999;51.332;9.458;2022-07-03T16:26:00;28.50;11.20
21676;DHT22;10999;51.332;9.458;2022-07-03T16:28:26;28.40;12.10
21676;DHT22;10999;51.332;9.458;2022-07-03T16:30:54;28.40;11.60
21676;DHT22;10999;51.332;9.458;2022-07-03T16:33:22;28.50;11.50
21676;DHT22;10999;51.332;9.458;2022-07-03T16:35:55;28.60;11.20
21676;DHT22;10999;51.332;9.458;2022-07-03T16:38:23;28.40;10.10
21676;DHT22;10999;51.332;9.458;2022-07-03T16:40:51;28.10;11.10
21676;DHT22;10999;51.332;9.458;2022-07-03T16:43:20;27.90;10.60
21676;DHT22;10999;51.332;9.458;2022-07-03T16:45:49;27.70;11.80
21676;DHT22;10999;51.332;9.458;2022-07-03T16:48:17;27.50;11.70
21676;DHT22;10999;51.332;9.458;2022-07-03T16:50:52;27.50;12.60
21676;DHT22;10999;51.332;9.458;2022-07-03T16:53:20;27.40;11.20
21676;DHT22;10999;51.332;9.458;2022-07-03T16:55:47;27.30;11.20
21676;DHT22;10999;51.332;9.458;2022-07-03T16:58:14;27.20;10.90
21676;DHT22;10999;51.332;9.458;2022-07-03T17:00:41;27.10;11.70
21676;DHT22;10999;51.332;9.458;2022-07-03T17:03:09;27.10;10.80
21676;DHT22;10999;51.332;9.458;2022-07-03T17:05:36;27.00;11.90
21676;DHT22;10999;51.332;9.458;2022-07-03T17:08:03;26.90;11.10
21676;DHT22;10999;51.332;9.458;2022-07-03T17:10:34;26.90;11.70
21676;DHT22;10999;51.332;9.458;2022-07-03T17:13:01;26.80;11.80
21676;DHT22;10999;51.332;9.458;2022-07-03T17:15:28;26.70;11.60